Time;durP1;ratioP1;P1;durP2;ratioP2;P2;SDS_P1;SDS_P2;PMS_P1;PMS_P2;Temp;Humidity;BMP_temperature;BMP_pressure;BME280_temperature;BME280_humidity;BME280_pressure;Samples;Min_cycle;Max_cycle;Signal;HPM_P1;HPM_P2
2021/09/12 00:01:10;;;;;;;;;11.33;11.00;;;;;15.29;72.96;101445.78;5079448;28;45401;-78
2021/09/12 00:03:35;;;;;;;;;10.00;10.00;;;;;15.25;72.89;101458.72;5081648;28;45196;-78
2021/09/12 00:06:01;;;;;;;;;12.33;12.00;;;;;15.30;72.81;101454.66;5079909;28;45892;-78
2021/09/12 00:08:26;;;;;;;;;12.67;12.67;;;;;15.25;72.57;101448.03;5081326;27;45265;-78
2021/09/12 00:10:52;;;;;;;;;13.33;12.33;;;;;15.24;73.04;101440.97;5079868;28;45189;-78
2021/09/12 00:13:18;;;;;;;;;14.00;12.00;;;;;15.34;73.02;101458.59;5080024;28;45246;-78
2021/09/12 00:15:43;;;;;;;;;11.00;10.33;;;;;15.35;72.96;101444.19;5080774;28;45228;-78
2021/09/12 00:18:09;;;;;;;;;13.33;12.67;;;;;15.36;72.82;101449.34;5079810;28;47852;-78
2021/09/12 00:20:35;;;;;;;;;15.00;13.67;;;;;15.35;73.12;101449.53;5079597;28;45377;-78
2021/09/12 00:23:01;;;;;;;;;15.33;12.33;;;;;15.35;72.96;101445.03;5081154;28;45476;-78
2021/09/12 00:25:26;;;;;;;;;13.33;12.00;;;;;15.39;73.19;101448.16;5079558;28;46847;-78
2021/09/12 00:27:52;;;;;;;;;12.33;10.33;;;;;15.40;73.22;101445.31;5080817;28;45263;-78
2021/09/12 00:30:17;;;;;;;;;13.67;10.33;;;;;15.38;73.02;101449.16;5072452;28;45377;-78
2021/09/12 00:32:43;;;;;;;;;13.00;13.00;;;;;15.39;73.41;101440.94;5060846;28;45248;-78
2021/09/12 00:35:09;;;;;;;;;11.33;10.00;;;;;15.39;72.98;101432.91;5059085;28;45407;-78
2021/09/12 00:37:37;;;;;;;;;11.67;11.00;;;;;15.45;73.11;101439.38;5060431;28;45630;-78
2021/09/12 00:40:05;;;;;;;;;12.67;11.33;;;;;15.47;72.82;101444.56;5060585;28;45234;-78
2021/09/12 00:42:31;;;;;;;;;11.67;11.67;;;;;15.48;73.07;101446.22;5059372;28;45351;-78
2021/09/12 00:44:57;;;;;;;;;13.00;13.00;;;;;15.45;73.12;101434.03;5058802;28;45378;-78
2021/09/12 00:47:23;;;;;;;;;12.33;12.33;;;;;15.49;73.15;101446.00;5058704;28;45463;-78
2021/09/12 00:49:48;;;;;;;;;12.33;12.00;;;;;15.47;72.84;101440.00;5059141;28;45280;-78
2021/09/12 00:52:15;;;;;;;;;14.00;12.33;;;;;15.54;73.07;101437.41;5059046;28;45292;-78
2021/09/12 00:54:42;;;;;;;;;14.00;12.00;;;;;15.59;73.29;101444.88;5059005;28;45489;-78
2021/09/12 00:57:12;;;;;;;;;12.00;11.33;;;;;15.62;72.62;101439.13;5060285;28;46174;-78
2021/09/12 00:59:40;;;;;;;;;12.00;10.67;;;;;15.67;72.73;101442.06;5060334;28;45279;-78
2021/09/12 01:02:08;;;;;;;;;12.00;10.00;;;;;15.70;72.27;101441.69;5060289;28;45173;-78
2021/09/12 01:04:35;;;;;;;;;8.67;8.67;;;;;15.65;72.12;101433.38;5060124;28;45227;-77
2021/09/12 01:07:03;;;;;;;;;11.67;11.67;;;;;15.64;72.17;101439.75;5058477;28;46539;-78
2021/09/12 01:09:30;;;;;;;;;11.00;11.00;;;;;15.60;72.58;101435.81;5060117;28;45355;-78
2021/09/12 01:11:59;;;;;;;;;9.00;8.33;;;;;15.65;72.78;101441.41;5058844;28;45315;-78
2021/09/12 01:14:26;;;;;;;;;9.00;9.00;;;;;15.67;72.51;101427.81;5058753;28;46299;-78
2021/09/12 01:16:53;;;;;;;;;11.00;11.00;;;;;15.69;72.71;101425.78;5058411;28;46501;-78
2021/09/12 01:19:30;;;;;;;;;9.33;8.67;;;;;15.75;72.63;101428.53;5059248;28;45347;-79
2021/09/12 01:22:13;;;;;;;;;9.67;9.33;;;;;15.83;72.24;101449.00;5058375;28;45334;-78
2021/09/12 01:24:39;;;;;;;;;9.00;8.67;;;;;15.79;72.06;101439.69;5058731;28;46252;-78
2021/09/12 01:27:05;;;;;;;;;8.00;7.00;;;;;15.74;72.63;101426.88;5056954;28;45900;-78
2021/09/12 01:29:42;;;;;;;;;10.00;9.67;;;;;15.82;72.55;101435.81;5063055;28;45600;-78
2021/09/12 01:32:08;;;;;;;;;7.00;7.00;;;;;15.82;72.38;101427.75;5078598;28;45239;-78
2021/09/12 01:34:34;;;;;;;;;10.00;8.67;;;;;15.84;72.75;101426.56;5078491;28;45495;-78
2021/09/12 01:37:02;;;;;;;;;11.67;11.67;;;;;15.85;72.86;101422.00;5078415;28;45763;-78
2021/09/12 01:39:28;;;;;;;;;8.67;8.67;;;;;15.87;72.49;101419.97;5078489;28;45280;-78
2021/09/12 01:41:59;;;;;;;;;11.67;11.67;;;;;15.85;72.46;101422.84;5078810;28;45334;-78
2021/09/12 01:44:28;;;;;;;;;10.67;10.67;;;;;15.83;72.49;101432.94;5078489;28;45283;-78
2021/09/12 01:46:55;;;;;;;;;12.33;11.67;;;;;15.77;72.77;101426.50;5079585;27;45543;-79
2021/09/12 01:49:21;;;;;;;;;16.00;16.00;;;;;15.82;72.35;101433.13;5078516;28;45328;-78
2021/09/12 01:51:47;;;;;;;;;15.33;14.00;;;;;15.83;72.47;101426.75;5078463;28;45249;-78
2021/09/12 01:54:13;;;;;;;;;14.00;14.00;;;;;15.80;72.36;101416.41;5078487;28;45518;-78
2021/09/12 01:56:39;;;;;;;;;14.00;12.67;;;;;15.83;72.49;101422.22;5078241;28;45443;-78
2021/09/12 01:59:04;;;;;;;;;17.67;16.67;;;;;15.80;72.11;101419.09;5078465;28;45576;-78
2021/09/12 02:01:31;;;;;;;;;10.00;10.00;;;;;15.83;72.35;101413.34;5078292;28;45200;-78
2021/09/12 02:04:02;;;;;;;;;13.67;13.33;;;;;15.88;72.11;101413.59;5078399;28;45351;-78
2021/09/12 02:06:28;;;;;;;;;13.33;12.67;;;;;15.90;72.23;101423.09;5077904;28;47031;-78
2021/09/12 02:08:54;;;;;;;;;18.00;14.67;;;;;15.89;72.22;101417.91;5078149;28;45282;-78
2021/09/12 02:11:20;;;;;;;;;13.00;13.00;;;;;15.87;72.50;101419.97;5079821;27;45287;-78
2021/09/12 02:13:46;;;;;;;;;9.00;8.00;;;;;15.83;72.39;101405.31;5078242;28;46126;-78
2021/09/12 02:16:12;;;;;;;;;14.00;14.00;;;;;15.87;72.50;101412.75;5077770;28;45615;-78
2021/09/12 02:18:38;;;;;;;;;15.00;12.33;;;;;15.88;72.43;101411.75;5077993;28;45343;-78
2021/09/12 02:21:05;;;;;;;;;14.00;14.00;;;;;15.90;72.37;101415.06;5078311;28;45395;-78
2021/09/12 02:23:31;;;;;;;;;13.67;12.67;;;;;15.87;72.18;101420.78;5077976;28;45275;-78
2021/09/12 02:25:59;;;;;;;;;12.00;11.00;;;;;15.82;72.88;101428.59;5077702;28;45475;-78
2021/09/12 02:28:25;;;;;;;;;13.67;12.00;;;;;15.80;72.86;101435.19;5078121;28;45362;-78
2021/09/12 02:30:51;;;;;;;;;11.33;10.00;;;;;15.80;72.63;101429.81;5064756;28;45472;-78
2021/09/12 02:33:17;;;;;;;;;15.00;14.33;;;;;15.77;72.97;101423.81;5057786;28;45519;-79
2021/09/12 02:35:42;;;;;;;;;14.67;14.33;;;;;15.83;73.14;101440.97;5057282;28;47157;-79
2021/09/12 02:38:08;;;;;;;;;14.00;14.00;;;;;15.87;72.65;101441.44;5057863;28;45280;-78
2021/09/12 02:40:34;;;;;;;;;13.00;12.67;;;;;15.89;72.71;101444.72;5061245;28;45280;-78
2021/09/12 02:43:13;;;;;;;;;13.00;13.00;;;;;15.93;72.68;101445.19;5061138;28;45543;-79
2021/09/12 02:45:41;;;;;;;;;13.33;12.00;;;;;15.95;72.34;101443.97;5060782;28;46271;-78
2021/09/12 02:48:07;;;;;;;;;13.00;13.00;;;;;15.95;72.99;101449.31;5060575;28;45394;-78
2021/09/12 02:50:33;;;;;;;;;13.67;12.00;;;;;15.97;72.76;101441.13;5061136;28;45346;-78
2021/09/12 02:53:08;;;;;;;;;14.67;14.00;;;;;15.99;73.10;101441.75;5061766;28;45526;-79
2021/09/12 02:55:33;;;;;;;;;12.00;12.00;;;;;15.88;73.06;101437.72;5062177;28;45511;-78
2021/09/12 02:57:59;;;;;;;;;13.00;13.00;;;;;15.88;73.35;101441.22;5060988;28;45367;-79
2021/09/12 03:00:24;;;;;;;;;12.00;12.00;;;;;15.91;73.32;101440.00;5062267;28;45526;-78
2021/09/12 03:02:50;;;;;;;;;16.33;13.67;;;;;15.94;73.33;101436.09;5062124;28;45277;-78
2021/09/12 03:05:15;;;;;;;;;14.67;14.67;;;;;15.94;72.99;101434.28;5060568;28;46333;-78
2021/09/12 03:07:40;;;;;;;;;14.00;14.00;;;;;15.97;73.19;101433.06;5060662;28;45235;-78
2021/09/12 03:10:06;;;;;;;;;13.00;11.00;;;;;15.95;73.08;101435.91;5062247;28;45658;-78
2021/09/12 03:12:31;;;;;;;;;14.67;14.67;;;;;15.91;73.19;101431.97;5061941;28;45521;-78
2021/09/12 03:14:57;;;;;;;;;14.00;13.00;;;;;15.89;73.00;101431.31;5061762;28;45944;-78
2021/09/12 03:17:22;;;;;;;;;12.67;12.67;;;;;15.83;73.39;101416.03;5060433;28;45313;-79
2021/09/12 03:19:48;;;;;;;;;13.67;13.67;;;;;15.91;73.42;101423.94;5062106;28;45218;-78
2021/09/12 03:22:13;;;;;;;;;12.67;11.00;;;;;15.86;73.29;101427.19;5061617;28;45223;-78
2021/09/12 03:24:39;;;;;;;;;12.00;12.00;;;;;15.80;73.20;101419.91;5061738;28;45171;-78
2021/09/12 03:27:04;;;;;;;;;14.33;13.33;;;;;15.78;73.46;101416.63;5061824;28;45205;-78
2021/09/12 03:29:29;;;;;;;;;13.00;13.00;;;;;15.78;73.09;101428.13;5063532;28;45145;-78
2021/09/12 03:31:55;;;;;;;;;12.33;12.33;;;;;15.77;73.63;101423.81;5081788;28;45707;-78
2021/09/12 03:34:20;;;;;;;;;15.00;13.00;;;;;15.75;73.56;101412.44;5082072;27;45426;-78
2021/09/12 03:36:46;;;;;;;;;13.67;13.67;;;;;15.72;73.79;101426.25;5081425;28;45323;-78
2021/09/12 03:39:11;;;;;;;;;13.67;11.33;;;;;15.60;73.99;101403.66;5082125;28;45279;-78
2021/09/12 03:41:37;;;;;;;;;13.00;13.00;;;;;15.67;73.75;101417.09;5081822;28;45483;-78
2021/09/12 03:44:02;;;;;;;;;10.00;10.00;;;;;15.69;73.84;101417.75;5081668;28;45418;-78
2021/09/12 03:46:28;;;;;;;;;14.00;14.00;;;;;15.67;74.26;101409.91;5081531;28;45348;-79
2021/09/12 03:48:53;;;;;;;;;13.33;13.33;;;;;15.68;73.79;101416.91;5081857;28;45691;-78
2021/09/12 03:51:18;;;;;;;;;10.67;10.33;;;;;15.67;73.97;101417.09;5080749;28;45457;-78
2021/09/12 03:53:44;;;;;;;;;14.33;14.00;;;;;15.61;74.31;101416.03;5081494;28;45499;-77
2021/09/12 03:56:09;;;;;;;;;12.00;10.67;;;;;15.52;74.26;101415.34;5080198;28;45311;-78
2021/09/12 03:58:35;;;;;;;;;12.67;12.67;;;;;15.53;74.22;101414.31;5081811;27;45292;-78
2021/09/12 04:01:00;;;;;;;;;12.33;12.33;;;;;15.56;74.09;101413.13;5081249;28;45436;-78
2021/09/12 04:03:26;;;;;;;;;11.67;11.00;;;;;15.60;74.18;101415.22;5081511;28;45278;-78
2021/09/12 04:05:51;;;;;;;;;13.33;13.33;;;;;15.61;74.20;101422.22;5081383;28;45464;-78
2021/09/12 04:08:16;;;;;;;;;12.67;12.67;;;;;15.60;74.59;101425.09;5081585;28;45304;-78
2021/09/12 04:10:42;;;;;;;;;10.67;10.67;;;;;15.58;74.96;101419.09;5081480;28;45274;-78
2021/09/12 04:13:07;;;;;;;;;12.67;12.00;;;;;15.53;74.35;101414.31;5081298;28;46161;-76
2021/09/12 04:15:33;;;;;;;;;12.33;12.33;;;;;15.52;74.46;101407.28;5080973;28;45369;-78
2021/09/12 04:17:58;;;;;;;;;12.67;11.33;;;;;15.53;74.77;101409.78;5081371;28;45196;-78
2021/09/12 04:20:24;;;;;;;;;13.33;12.00;;;;;15.56;74.42;101408.56;5079761;28;46179;-78
2021/09/12 04:22:49;;;;;;;;;11.33;11.33;;;;;15.53;74.42;101404.44;5081191;28;45801;-78
2021/09/12 04:25:14;;;;;;;;;11.33;11.00;;;;;15.50;74.29;101414.69;5079604;28;45272;-76
2021/09/12 04:27:40;;;;;;;;;14.67;14.67;;;;;15.45;74.63;101411.75;5081144;28;45298;-76
2021/09/12 04:30:08;;;;;;;;;12.33;11.67;;;;;15.38;74.26;101403.63;5074217;28;45173;-76
2021/09/12 04:32:33;;;;;;;;;11.67;11.67;;;;;15.33;74.26;101398.88;5060719;28;45704;-76
2021/09/12 04:34:58;;;;;;;;;12.33;12.33;;;;;15.25;74.18;101398.97;5060418;28;45264;-76
2021/09/12 04:37:24;;;;;;;;;12.33;12.00;;;;;15.23;74.16;101406.38;5059268;28;45401;-76
2021/09/12 04:39:49;;;;;;;;;12.67;12.00;;;;;15.22;74.50;101408.22;5059144;28;46482;-76
2021/09/12 04:42:15;;;;;;;;;12.67;11.33;;;;;15.19;74.51;101407.75;5060507;28;45619;-76
2021/09/12 04:44:40;;;;;;;;;15.00;12.00;;;;;15.12;74.44;101410.38;5060282;28;45317;-76
2021/09/12 04:47:05;;;;;;;;;15.00;14.67;;;;;15.06;74.49;101403.94;5060359;28;45750;-76
2021/09/12 04:49:31;;;;;;;;;10.00;10.00;;;;;15.02;74.95;101406.16;5060355;28;45156;-76
2021/09/12 04:51:56;;;;;;;;;17.00;13.67;;;;;14.99;74.53;101409.19;5060270;28;45399;-76
2021/09/12 04:54:22;;;;;;;;;15.00;14.33;;;;;14.97;74.61;101405.88;5060378;28;45311;-76
2021/09/12 04:56:47;;;;;;;;;14.67;12.00;;;;;14.92;74.57;101408.28;5060428;28;45285;-76
2021/09/12 04:59:12;;;;;;;;;15.00;15.00;;;;;14.89;74.79;101400.63;5058984;28;45929;-76
2021/09/12 05:01:38;;;;;;;;;13.33;13.00;;;;;14.84;74.75;101409.22;5059976;28;45251;-76
2021/09/12 05:04:04;;;;;;;;;11.33;11.33;;;;;14.81;74.83;101403.44;5060245;28;45276;-76
2021/09/12 05:06:29;;;;;;;;;13.33;11.00;;;;;14.78;74.72;101399.25;5058976;28;45193;-76
2021/09/12 05:08:55;;;;;;;;;15.67;15.67;;;;;14.74;74.47;101400.63;5058674;28;45850;-76
2021/09/12 05:11:20;;;;;;;;;12.67;11.33;;;;;14.71;74.71;101401.81;5060048;28;46354;-77
2021/09/12 05:13:46;;;;;;;;;17.00;16.00;;;;;14.68;75.19;101401.34;5060087;28;45406;-78
2021/09/12 05:16:11;;;;;;;;;10.33;10.33;;;;;14.67;74.96;101408.56;5058142;28;45382;-78
2021/09/12 05:18:37;;;;;;;;;13.00;13.00;;;;;14.65;74.98;101418.63;5059918;28;45435;-78
2021/09/12 05:21:02;;;;;;;;;14.00;13.00;;;;;14.62;75.01;101417.16;5059653;28;46177;-78
2021/09/12 05:23:29;;;;;;;;;13.00;12.67;;;;;14.58;75.09;101415.84;5058025;28;45409;-78
2021/09/12 05:25:55;;;;;;;;;10.67;10.67;;;;;14.54;74.88;101411.88;5058364;28;45349;-76
2021/09/12 05:28:20;;;;;;;;;13.67;12.00;;;;;14.52;75.06;101412.06;5059738;28;45391;-76
2021/09/12 05:30:46;;;;;;;;;14.33;11.67;;;;;14.53;75.04;101418.25;5071542;28;45386;-77
2021/09/12 05:33:11;;;;;;;;;12.33;12.33;;;;;14.48;75.20;101413.44;5080304;27;45226;-78
2021/09/12 05:35:37;;;;;;;;;13.33;12.67;;;;;14.48;75.23;101409.94;5080063;28;45326;-77
2021/09/12 05:38:02;;;;;;;;;14.67;13.67;;;;;14.48;75.53;101409.94;5078609;28;46324;-78
2021/09/12 05:40:28;;;;;;;;;16.33;16.33;;;;;14.52;75.24;101419.28;5058151;28;45375;-78
2021/09/12 05:42:54;;;;;;;;;14.00;13.00;;;;;14.54;75.11;101419.09;5058079;28;45228;-78
2021/09/12 05:45:19;;;;;;;;;13.33;12.00;;;;;14.49;75.50;101419.63;5058989;28;45203;-78
2021/09/12 05:47:44;;;;;;;;;13.00;13.00;;;;;14.42;75.17;101414.19;5057411;28;45713;-77
2021/09/12 05:50:10;;;;;;;;;14.00;12.33;;;;;14.43;75.33;101413.19;5058592;28;46066;-77
2021/09/12 05:52:36;;;;;;;;;13.00;13.00;;;;;14.45;75.40;101410.28;5057096;28;45448;-77
2021/09/12 05:55:02;;;;;;;;;12.00;12.00;;;;;14.49;75.18;101416.97;5059512;28;45393;-80
2021/09/12 05:57:27;;;;;;;;;16.67;13.33;;;;;14.50;75.09;101421.28;5059435;28;45423;-79
2021/09/12 05:59:52;;;;;;;;;10.67;10.00;;;;;14.46;75.13;101428.84;5057982;28;47442;-79
2021/09/12 06:02:18;;;;;;;;;13.33;13.33;;;;;14.44;75.16;101420.19;5058633;28;45342;-78
2021/09/12 06:04:44;;;;;;;;;13.33;13.33;;;;;14.43;75.32;101415.84;5059665;28;45652;-78
2021/09/12 06:07:10;;;;;;;;;16.00;14.00;;;;;14.44;75.43;101422.84;5059179;28;45306;-76
2021/09/12 06:09:35;;;;;;;;;11.33;11.33;;;;;14.42;75.40;101424.88;5059268;28;45373;-76
2021/09/12 06:12:01;;;;;;;;;11.00;11.00;;;;;14.50;75.45;101432.00;5059419;28;45279;-76
2021/09/12 06:14:26;;;;;;;;;13.67;13.67;;;;;14.52;75.41;101435.31;5060399;28;45544;-77
2021/09/12 06:16:52;;;;;;;;;16.00;13.00;;;;;14.54;75.33;101430.59;5062465;28;45457;-77
2021/09/12 06:19:17;;;;;;;;;12.67;12.67;;;;;14.54;75.48;101433.28;5062859;28;45469;-77
2021/09/12 06:21:42;;;;;;;;;18.00;16.00;;;;;14.55;75.24;101426.09;5062397;28;45268;-78
2021/09/12 06:24:08;;;;;;;;;21.00;21.00;;;;;14.61;75.37;101439.53;5062762;28;45271;-77
2021/09/12 06:26:33;;;;;;;;;15.67;15.67;;;;;14.60;75.31;101432.53;5062639;28;45221;-77
2021/09/12 06:28:59;;;;;;;;;18.00;18.00;;;;;14.64;75.27;101436.50;5062629;28;45352;-76
2021/09/12 06:31:26;;;;;;;;;15.00;15.00;;;;;14.63;75.49;101434.84;5080022;28;45294;-76
2021/09/12 06:33:52;;;;;;;;;14.33;14.33;;;;;14.65;75.45;101448.03;5081645;28;45317;-76
2021/09/12 06:36:18;;;;;;;;;15.00;15.00;;;;;14.63;75.48;101444.72;5082386;28;45483;-76
2021/09/12 06:38:43;;;;;;;;;17.00;17.00;;;;;14.67;75.37;101442.50;5082731;28;46111;-77
2021/09/12 06:41:09;;;;;;;;;13.33;13.33;;;;;14.64;75.61;101438.38;5081123;28;46006;-77
2021/09/12 06:43:34;;;;;;;;;14.67;14.67;;;;;14.66;75.63;101440.84;5081546;28;45314;-76
2021/09/12 06:46:00;;;;;;;;;17.00;15.33;;;;;14.72;75.49;101445.44;5082291;28;45417;-77
2021/09/12 06:48:25;;;;;;;;;17.00;17.00;;;;;14.72;75.63;101440.94;5082583;28;46274;-77
2021/09/12 06:50:53;;;;;;;;;17.00;17.00;;;;;14.75;75.63;101448.59;5082637;28;45270;-77
2021/09/12 06:53:18;;;;;;;;;12.67;12.33;;;;;14.77;76.05;101445.72;5081246;28;45325;-78
2021/09/12 06:55:44;;;;;;;;;14.00;14.00;;;;;14.82;75.88;101447.88;5081068;28;46067;-77
2021/09/12 06:58:09;;;;;;;;;17.00;17.00;;;;;14.82;75.86;101442.53;5082367;28;46458;-77
2021/09/12 07:00:35;;;;;;;;;17.33;16.67;;;;;14.88;75.88;101444.47;5082262;28;45293;-77
2021/09/12 07:03:00;;;;;;;;;18.67;18.67;;;;;14.89;76.02;101438.09;5076364;28;45394;-77
2021/09/12 07:05:26;;;;;;;;;20.33;20.33;;;;;14.95;75.84;101434.69;5060680;28;47825;-76
2021/09/12 07:07:51;;;;;;;;;24.00;24.00;;;;;15.00;76.31;101437.63;5061963;28;45520;-76
2021/09/12 07:10:20;;;;;;;;;21.67;21.33;;;;;15.09;75.98;101442.88;5061686;28;45382;-76
2021/09/12 07:12:46;;;;;;;;;19.33;19.33;;;;;15.11;76.06;101440.81;5062219;28;45232;-76
2021/09/12 07:15:12;;;;;;;;;22.33;22.33;;;;;15.21;75.94;101448.59;5060255;28;46010;-76
2021/09/12 07:17:39;;;;;;;;;23.00;21.00;;;;;15.27;75.71;101443.28;5061763;28;46124;-76
2021/09/12 07:20:05;;;;;;;;;23.00;21.33;;;;;15.29;75.37;101434.25;5061817;28;45224;-76
2021/09/12 07:22:30;;;;;;;;;21.00;21.00;;;;;15.36;75.71;101437.84;5061655;28;45193;-76
2021/09/12 07:24:55;;;;;;;;;20.67;18.00;;;;;15.43;75.68;101441.41;5059231;28;46031;-76
2021/09/12 07:27:21;;;;;;;;;20.33;19.67;;;;;15.49;75.28;101435.31;5061647;28;45350;-77
2021/09/12 07:29:46;;;;;;;;;22.67;21.67;;;;;15.60;74.70;101435.81;5065818;28;45250;-77
2021/09/12 07:32:12;;;;;;;;;23.67;21.33;;;;;15.66;74.87;101440.41;5081968;28;45468;-76
2021/09/12 07:34:38;;;;;;;;;20.67;20.67;;;;;15.77;74.92;101439.06;5080185;28;46183;-77
2021/09/12 07:37:03;;;;;;;;;21.00;20.00;;;;;15.85;75.03;101444.31;5081779;28;45310;-77
2021/09/12 07:39:29;;;;;;;;;20.00;18.00;;;;;15.91;74.37;101440.00;5081868;28;45342;-77
2021/09/12 07:41:54;;;;;;;;;21.67;20.00;;;;;15.99;74.30;101437.25;5080606;28;45246;-77
2021/09/12 07:44:19;;;;;;;;;19.67;19.00;;;;;16.09;74.23;101444.94;5081638;28;45651;-77
2021/09/12 07:46:45;;;;;;;;;19.00;19.00;;;;;16.13;74.21;101435.47;5081524;28;45333;-77
2021/09/12 07:49:10;;;;;;;;;17.00;17.00;;;;;16.21;74.11;101437.19;5081776;28;45349;-77
2021/09/12 07:51:35;;;;;;;;;19.67;17.67;;;;;16.27;74.35;101425.69;5081781;28;45301;-77
2021/09/12 07:54:01;;;;;;;;;17.00;17.00;;;;;16.36;73.17;101437.09;5081566;28;45233;-77
2021/09/12 07:56:26;;;;;;;;;23.00;19.00;;;;;16.47;73.37;101449.16;5081504;28;45192;-77
2021/09/12 07:58:51;;;;;;;;;19.33;19.00;;;;;16.56;72.98;101443.59;5081705;27;45253;-77
2021/09/12 08:01:17;;;;;;;;;18.33;18.00;;;;;16.60;72.80;101444.88;5079952;28;45342;-78
2021/09/12 08:03:42;;;;;;;;;18.33;17.67;;;;;16.70;73.02;101447.22;5081610;28;45236;-78
2021/09/12 08:06:08;;;;;;;;;19.00;19.00;;;;;16.77;73.34;101440.03;5079948;28;48020;-77
2021/09/12 08:08:33;;;;;;;;;19.67;18.67;;;;;16.87;72.20;101443.16;5081558;28;45209;-78
2021/09/12 08:10:59;;;;;;;;;18.00;17.00;;;;;16.95;72.41;101444.00;5081639;28;45212;-78
2021/09/12 08:13:24;;;;;;;;;17.67;17.67;;;;;17.05;71.95;101455.22;5081425;28;45191;-78
2021/09/12 08:15:49;;;;;;;;;14.00;14.00;;;;;17.10;71.81;101444.75;5081090;28;45338;-77
2021/09/12 08:18:17;;;;;;;;;18.00;18.00;;;;;17.19;72.12;101448.06;5081309;27;45182;-78
2021/09/12 08:20:42;;;;;;;;;15.33;15.00;;;;;17.32;72.19;101452.66;5081307;28;45364;-78
2021/09/12 08:23:08;;;;;;;;;14.67;13.33;;;;;17.35;70.68;101446.03;5079502;28;45794;-78
2021/09/12 08:25:33;;;;;;;;;8.00;8.00;;;;;17.44;70.11;101450.22;5079325;28;47862;-79
2021/09/12 08:27:58;;;;;;;;;13.00;13.00;;;;;17.55;69.96;101456.84;5070081;28;45313;-80
2021/09/12 08:30:24;;;;;;;;;11.00;11.00;;;;;17.61;69.96;101450.66;5064600;28;45314;-80
2021/09/12 08:32:49;;;;;;;;;11.67;10.67;;;;;17.70;69.25;101455.84;5060101;28;47513;-80
2021/09/12 08:35:14;;;;;;;;;9.67;9.67;;;;;17.73;68.09;101450.06;5060733;28;45317;-79
2021/09/12 08:37:40;;;;;;;;;8.00;8.00;;;;;17.86;68.05;101466.19;5059657;28;45277;-80
2021/09/12 08:40:06;;;;;;;;;8.00;8.00;;;;;17.93;67.44;101466.22;5060822;28;45287;-81
2021/09/12 08:42:32;;;;;;;;;10.00;10.00;;;;;18.00;68.25;101467.03;5060558;28;45472;-81
2021/09/12 08:44:58;;;;;;;;;11.00;11.00;;;;;18.08;66.93;101459.81;5060406;28;46178;-80
2021/09/12 08:47:23;;;;;;;;;8.00;7.00;;;;;18.15;67.10;101458.81;5060676;28;45220;-79
2021/09/12 08:49:49;;;;;;;;;7.67;7.33;;;;;18.22;67.85;101455.25;5060861;28;45213;-79
2021/09/12 08:52:37;;;;;;;;;8.67;7.00;;;;;18.28;66.83;101455.25;5060195;28;45223;-82
2021/09/12 08:55:03;;;;;;;;;7.00;6.00;;;;;18.38;66.66;101451.31;5060188;28;46307;-81
2021/09/12 08:57:30;;;;;;;;;7.33;7.33;;;;;18.49;65.02;101447.16;5060104;28;45319;-80
2021/09/12 08:59:58;;;;;;;;;5.00;5.00;;;;;18.50;65.81;101438.84;5060289;28;45362;-79
2021/09/12 09:02:38;;;;;;;;;5.33;5.33;;;;;18.57;64.57;101440.72;5060258;28;45252;-79
2021/09/12 09:05:04;;;;;;;;;8.33;8.00;;;;;18.62;64.93;101438.22;5058759;28;47203;-77
2021/09/12 09:07:33;;;;;;;;;6.33;6.00;;;;;18.67;64.91;101438.41;5060027;28;45335;-78
2021/09/12 09:10:16;;;;;;;;;6.67;6.67;;;;;18.64;62.97;101436.97;5058776;28;45240;-79
2021/09/12 09:12:42;;;;;;;;;7.00;6.00;;;;;18.70;63.08;101438.00;5058276;28;45490;-77
2021/09/12 09:15:20;;;;;;;;;7.67;7.67;;;;;18.75;62.22;101445.44;5059817;28;45279;-78
2021/09/12 09:17:48;;;;;;;;;5.67;5.33;;;;;18.76;60.87;101442.53;5060076;28;45384;-77
2021/09/12 09:20:26;;;;;;;;;3.67;3.67;;;;;18.76;62.03;101445.22;5060120;28;45327;-77
2021/09/12 09:22:52;;;;;;;;;7.00;6.00;;;;;18.76;62.48;101439.84;5059735;28;45358;-77
2021/09/12 09:25:26;;;;;;;;;3.00;3.00;;;;;18.83;61.16;101439.81;5059925;28;45343;-78
2021/09/12 09:28:00;;;;;;;;;6.00;6.00;;;;;18.83;61.76;101439.81;5058430;28;45327;-80
2021/09/12 09:30:28;;;;;;;;;7.33;7.33;;;;;18.89;62.37;101448.91;5067642;28;45525;-79
2021/09/12 09:33:18;;;;;;;;;6.00;5.33;;;;;18.98;61.67;101449.50;5080062;28;45267;-79
2021/09/12 09:36:04;;;;;;;;;4.33;4.33;;;;;19.01;61.23;101441.81;5072069;28;45287;-78
2021/09/12 09:38:32;;;;;;;;;7.33;6.00;;;;;19.07;60.78;101450.09;5059507;28;45352;-80
2021/09/12 09:41:14;;;;;;;;;5.00;5.00;;;;;19.12;59.81;101451.13;5059718;28;45351;-77
2021/09/12 09:43:53;;;;;;;;;5.00;5.00;;;;;19.18;57.63;101452.97;5059552;28;45334;-78
2021/09/12 09:46:37;;;;;;;;;3.67;3.67;;;;;19.22;60.25;101456.06;5059336;28;46382;-79
2021/09/12 09:49:26;;;;;;;;;6.00;6.00;;;;;19.30;61.22;101446.88;5058702;28;45200;-78
2021/09/12 09:52:00;;;;;;;;;3.67;3.67;;;;;19.36;60.55;101451.41;5058498;28;45349;-76
2021/09/12 09:54:28;;;;;;;;;3.00;3.00;;;;;19.46;59.37;101434.78;5058859;28;45239;-76
2021/09/12 09:56:54;;;;;;;;;6.00;6.00;;;;;19.55;59.21;101438.84;5059202;28;46280;-75
2021/09/12 09:59:22;;;;;;;;;5.33;4.67;;;;;19.66;58.79;101444.59;5059568;28;45341;-76
2021/09/12 10:01:52;;;;;;;;;5.33;5.33;;;;;19.75;60.27;101437.88;5059392;28;45250;-76
2021/09/12 10:04:19;;;;;;;;;5.00;5.00;;;;;19.81;60.13;101431.63;5059340;28;45314;-76
2021/09/12 10:06:46;;;;;;;;;4.67;4.67;;;;;19.92;59.27;101434.66;5059208;28;45391;-77
2021/09/12 10:09:13;;;;;;;;;3.33;3.33;;;;;20.00;59.83;101433.56;5058080;28;45337;-77
2021/09/12 10:11:45;;;;;;;;;5.00;5.00;;;;;20.06;60.20;101435.41;5059529;28;45442;-76
2021/09/12 10:14:12;;;;;;;;;5.67;5.67;;;;;20.15;58.31;101427.84;5059337;28;45309;-75
2021/09/12 10:16:39;;;;;;;;;5.00;5.00;;;;;20.26;58.51;101437.91;5059025;28;45309;-75
2021/09/12 10:19:05;;;;;;;;;5.00;5.00;;;;;20.36;57.12;101434.72;5059353;28;45305;-78
2021/09/12 10:21:30;;;;;;;;;4.67;4.67;;;;;20.43;58.30;101426.53;5059038;28;45519;-78
2021/09/12 10:24:08;;;;;;;;;5.00;5.00;;;;;20.53;58.40;101429.53;5059229;28;45410;-77
2021/09/12 10:26:42;;;;;;;;;4.00;4.00;;;;;20.66;57.42;101427.75;5059053;28;46294;-78
2021/09/12 10:29:52;;;;;;;;;5.00;5.00;;;;;20.76;57.98;101422.63;5059028;28;45440;-77
2021/09/12 10:32:32;;;;;;;;;6.33;6.33;;;;;20.87;56.75;101421.06;5059058;28;45224;-77
2021/09/12 10:35:18;;;;;;;;;4.67;4.67;;;;;20.97;58.02;101425.94;5058604;28;45390;-76
2021/09/12 10:37:53;;;;;;;;;5.67;4.00;;;;;21.03;56.89;101430.44;5056031;28;46258;-77
2021/09/12 10:40:18;;;;;;;;;4.00;4.00;;;;;21.07;57.85;101417.28;5055410;28;45446;-75
2021/09/12 10:42:44;;;;;;;;;3.33;3.00;;;;;21.15;57.30;101421.53;5058346;28;45505;-76
2021/09/12 10:45:26;;;;;;;;;4.00;4.00;;;;;21.18;57.75;101412.97;5058121;28;45452;-76
2021/09/12 10:48:12;;;;;;;;;6.00;5.33;;;;;21.26;57.66;101409.97;5057451;28;48610;-77
2021/09/12 10:50:45;;;;;;;;;7.00;6.67;;;;;21.34;57.21;101416.09;5058720;28;45292;-76
2021/09/12 10:53:11;;;;;;;;;7.67;7.00;;;;;21.39;57.26;101414.34;5057367;28;45284;-78
2021/09/12 10:56:02;;;;;;;;;5.67;5.67;;;;;21.50;57.77;101417.31;5058570;28;45540;-79
2021/09/12 10:58:32;;;;;;;;;6.00;6.00;;;;;21.53;56.63;101411.44;5058640;28;46228;-78
2021/09/12 11:01:00;;;;;;;;;5.67;5.67;;;;;21.58;55.63;101411.56;5061409;28;45292;-77
2021/09/12 11:03:27;;;;;;;;;6.33;6.33;;;;;21.62;56.13;101406.50;5061826;28;45377;-77
2021/09/12 11:05:53;;;;;;;;;6.33;5.33;;;;;21.75;55.94;101417.16;5059330;28;46243;-77
2021/09/12 11:08:19;;;;;;;;;7.67;7.00;;;;;21.88;56.24;101402.56;5060014;28;45451;-75
2021/09/12 11:10:47;;;;;;;;;5.00;5.00;;;;;21.99;55.27;101402.78;5059907;28;46217;-76
2021/09/12 11:13:21;;;;;;;;;5.33;5.33;;;;;22.12;56.44;101404.47;5061395;28;45291;-75
2021/09/12 11:15:46;;;;;;;;;7.67;7.67;;;;;22.19;54.08;101388.91;5059026;28;45347;-76